Terminal Aerodrome Forecast
Issued by NWS

Home | Current Version | Previous Version | Text Only | Print | Product List | Glossary On
Versions: 1 2 3 4 5 6 7 8 9 10 11 12 13 14 15 16 17 18 19 20 21 22 23 24 25 26 27 28
000
FTUS41 KBUF 240905 AAB
TAFJHW
TAF AMD
KJHW 240905Z 2409/2506 23007KT 5SM BR BKN045
      TEMPO 2409/2412 BKN007
     FM241300 25006KT P6SM BKN035
     FM241500 26011KT P6SM BKN025
     FM242300 28010KT P6SM BKN015
     FM250300 29007KT P6SM BKN003
      AMD LTD TO CLD VIS AND WIND=

USA.gov is the U.S. government's official web portal to all federal, state and local government web resources and services.